sensor_id;sensor_type;location;lat;lon;timestamp;P1;durP1;ratioP1;P2;durP2;ratioP2
9467;SDS011;4772;52.382;9.752;2024-03-23T00:52:52;19.73;;;11.37;;
9467;SDS011;4772;52.382;9.752;2024-03-23T00:55:18;22.23;;;11.87;;
9467;SDS011;4772;52.382;9.752;2024-03-23T00:57:44;22.17;;;12.40;;
9467;SDS011;4772;52.382;9.752;2024-03-23T01:00:10;17.53;;;11.10;;
9467;SDS011;4772;52.382;9.752;2024-03-23T01:02:37;20.57;;;9.93;;
9467;SDS011;4772;52.382;9.752;2024-03-23T01:05:03;18.60;;;7.10;;
9467;SDS011;4772;52.382;9.752;2024-03-23T01:07:31;15.30;;;8.83;;
9467;SDS011;4772;52.382;9.752;2024-03-23T01:09:57;19.40;;;8.73;;
9467;SDS011;4772;52.382;9.752;2024-03-23T01:12:23;18.83;;;8.30;;
9467;SDS011;4772;52.382;9.752;2024-03-23T01:14:49;20.23;;;8.47;;
9467;SDS011;4772;52.382;9.752;2024-03-23T01:17:15;14.17;;;7.47;;
9467;SDS011;4772;52.382;9.752;2024-03-23T01:19:41;14.70;;;7.50;;
9467;SDS011;4772;52.382;9.752;2024-03-23T01:22:07;15.63;;;6.53;;
9467;SDS011;4772;52.382;9.752;2024-03-23T01:24:35;13.10;;;6.60;;
9467;SDS011;4772;52.382;9.752;2024-03-23T01:27:01;17.40;;;7.87;;
9467;SDS011;4772;52.382;9.752;2024-03-23T01:29:27;10.80;;;5.50;;
9467;SDS011;4772;52.382;9.752;2024-03-23T01:31:53;11.33;;;5.07;;
9467;SDS011;4772;52.382;9.752;2024-03-23T01:34:19;10.43;;;5.27;;
9467;SDS011;4772;52.382;9.752;2024-03-23T01:36:46;16.07;;;5.10;;
9467;SDS011;4772;52.382;9.752;2024-03-23T01:39:12;12.00;;;5.30;;
9467;SDS011;4772;52.382;9.752;2024-03-23T01:41:39;12.53;;;4.97;;
9467;SDS011;4772;52.382;9.752;2024-03-23T01:44:07;12.07;;;5.37;;
9467;SDS011;4772;52.382;9.752;2024-03-23T01:46:36;12.80;;;5.60;;
9467;SDS011;4772;52.382;9.752;2024-03-23T01:49:03;9.90;;;4.80;;
9467;SDS011;4772;52.382;9.752;2024-03-23T01:51:30;13.13;;;5.30;;
9467;SDS011;4772;52.382;9.752;2024-03-23T01:53:56;12.30;;;5.57;;
9467;SDS011;4772;52.382;9.752;2024-03-23T01:56:22;12.47;;;4.60;;
9467;SDS011;4772;52.382;9.752;2024-03-23T01:58:48;12.27;;;4.83;;
9467;SDS011;4772;52.382;9.752;2024-03-23T02:01:15;11.67;;;5.03;;
9467;SDS011;4772;52.382;9.752;2024-03-23T02:03:41;13.60;;;5.43;;
9467;SDS011;4772;52.382;9.752;2024-03-23T02:06:07;10.20;;;4.70;;
9467;SDS011;4772;52.382;9.752;2024-03-23T02:08:33;13.67;;;5.07;;
9467;SDS011;4772;52.382;9.752;2024-03-23T02:11:00;14.97;;;5.47;;
9467;SDS011;4772;52.382;9.752;2024-03-23T02:13:26;13.20;;;5.60;;
9467;SDS011;4772;52.382;9.752;2024-03-23T02:15:52;11.87;;;5.17;;
9467;SDS011;4772;52.382;9.752;2024-03-23T02:18:18;14.10;;;5.90;;
9467;SDS011;4772;52.382;9.752;2024-03-23T02:20:44;16.27;;;5.90;;
9467;SDS011;4772;52.382;9.752;2024-03-23T02:23:16;12.37;;;5.60;;
9467;SDS011;4772;52.382;9.752;2024-03-23T02:25:45;16.07;;;5.93;;
9467;SDS011;4772;52.382;9.752;2024-03-23T02:28:12;14.77;;;6.30;;
9467;SDS011;4772;52.382;9.752;2024-03-23T02:30:38;14.13;;;5.63;;
9467;SDS011;4772;52.382;9.752;2024-03-23T02:33:04;12.27;;;5.77;;
9467;SDS011;4772;52.382;9.752;2024-03-23T02:35:30;13.30;;;6.23;;
9467;SDS011;4772;52.382;9.752;2024-03-23T02:37:56;16.10;;;6.17;;
9467;SDS011;4772;52.382;9.752;2024-03-23T02:40:22;17.77;;;5.93;;
9467;SDS011;4772;52.382;9.752;2024-03-23T02:42:49;19.37;;;8.80;;
9467;SDS011;4772;52.382;9.752;2024-03-23T02:45:15;12.33;;;5.93;;
9467;SDS011;4772;52.382;9.752;2024-03-23T02:47:41;19.03;;;6.37;;
9467;SDS011;4772;52.382;9.752;2024-03-23T02:50:07;16.40;;;6.37;;
9467;SDS011;4772;52.382;9.752;2024-03-23T02:52:34;13.50;;;6.07;;
9467;SDS011;4772;52.382;9.752;2024-03-23T02:55:00;19.37;;;6.80;;
9467;SDS011;4772;52.382;9.752;2024-03-23T02:57:29;15.53;;;6.60;;
9467;SDS011;4772;52.382;9.752;2024-03-23T02:59:55;15.33;;;6.80;;
9467;SDS011;4772;52.382;9.752;2024-03-23T03:02:21;17.63;;;6.37;;
9467;SDS011;4772;52.382;9.752;2024-03-23T03:04:47;15.47;;;7.10;;
9467;SDS011;4772;52.382;9.752;2024-03-23T03:07:13;12.70;;;6.40;;
9467;SDS011;4772;52.382;9.752;2024-03-23T03:09:39;15.60;;;6.20;;
9467;SDS011;4772;52.382;9.752;2024-03-23T03:12:05;16.90;;;7.03;;
9467;SDS011;4772;52.382;9.752;2024-03-23T03:14:31;11.53;;;5.83;;
9467;SDS011;4772;52.382;9.752;2024-03-23T03:16:57;16.03;;;6.40;;
9467;SDS011;4772;52.382;9.752;2024-03-23T03:19:23;18.10;;;6.60;;
9467;SDS011;4772;52.382;9.752;2024-03-23T03:21:49;13.10;;;6.33;;
9467;SDS011;4772;52.382;9.752;2024-03-23T03:24:15;16.67;;;6.87;;
9467;SDS011;4772;52.382;9.752;2024-03-23T03:26:42;12.53;;;6.40;;
9467;SDS011;4772;52.382;9.752;2024-03-23T03:29:08;19.30;;;6.63;;
9467;SDS011;4772;52.382;9.752;2024-03-23T03:31:34;13.10;;;6.27;;
9467;SDS011;4772;52.382;9.752;2024-03-23T03:34:00;14.30;;;6.37;;
9467;SDS011;4772;52.382;9.752;2024-03-23T03:36:26;13.73;;;6.63;;
9467;SDS011;4772;52.382;9.752;2024-03-23T03:38:52;13.83;;;6.17;;
9467;SDS011;4772;52.382;9.752;2024-03-23T03:41:18;15.23;;;7.70;;
9467;SDS011;4772;52.382;9.752;2024-03-23T03:43:44;14.30;;;6.67;;
9467;SDS011;4772;52.382;9.752;2024-03-23T03:46:10;12.17;;;5.97;;
9467;SDS011;4772;52.382;9.752;2024-03-23T03:48:37;16.60;;;5.80;;
9467;SDS011;4772;52.382;9.752;2024-03-23T03:51:03;13.33;;;5.87;;
9467;SDS011;4772;52.382;9.752;2024-03-23T03:53:29;11.43;;;5.30;;
9467;SDS011;4772;52.382;9.752;2024-03-23T03:55:56;11.77;;;4.73;;
9467;SDS011;4772;52.382;9.752;2024-03-23T03:58:22;14.33;;;5.03;;
9467;SDS011;4772;52.382;9.752;2024-03-23T04:00:48;9.23;;;5.23;;
9467;SDS011;4772;52.382;9.752;2024-03-23T04:03:14;11.07;;;4.83;;
9467;SDS011;4772;52.382;9.752;2024-03-23T04:05:40;12.30;;;5.03;;
9467;SDS011;4772;52.382;9.752;2024-03-23T04:08:06;11.20;;;5.50;;
9467;SDS011;4772;52.382;9.752;2024-03-23T04:10:33;10.80;;;5.93;;
9467;SDS011;4772;52.382;9.752;2024-03-23T04:12:59;17.33;;;6.17;;
9467;SDS011;4772;52.382;9.752;2024-03-23T04:15:26;13.20;;;6.30;;
9467;SDS011;4772;52.382;9.752;2024-03-23T04:17:52;12.83;;;5.53;;
9467;SDS011;4772;52.382;9.752;2024-03-23T04:20:18;12.90;;;5.27;;
9467;SDS011;4772;52.382;9.752;2024-03-23T04:22:44;13.67;;;5.50;;
9467;SDS011;4772;52.382;9.752;2024-03-23T04:25:10;13.37;;;5.37;;
9467;SDS011;4772;52.382;9.752;2024-03-23T04:27:36;15.37;;;4.43;;
9467;SDS011;4772;52.382;9.752;2024-03-23T04:30:02;10.20;;;3.87;;
9467;SDS011;4772;52.382;9.752;2024-03-23T04:32:29;14.63;;;4.13;;
9467;SDS011;4772;52.382;9.752;2024-03-23T04:34:56;13.57;;;3.37;;
9467;SDS011;4772;52.382;9.752;2024-03-23T04:37:22;11.83;;;3.67;;
9467;SDS011;4772;52.382;9.752;2024-03-23T04:39:48;13.87;;;3.63;;
9467;SDS011;4772;52.382;9.752;2024-03-23T04:42:15;13.17;;;3.80;;
9467;SDS011;4772;52.382;9.752;2024-03-23T04:44:41;12.13;;;4.10;;
9467;SDS011;4772;52.382;9.752;2024-03-23T04:47:08;14.10;;;3.97;;
9467;SDS011;4772;52.382;9.752;2024-03-23T04:49:34;10.90;;;3.50;;
9467;SDS011;4772;52.382;9.752;2024-03-23T04:52:02;12.27;;;3.93;;
9467;SDS011;4772;52.382;9.752;2024-03-23T04:54:28;12.23;;;4.17;;
9467;SDS011;4772;52.382;9.752;2024-03-23T04:56:54;12.57;;;4.37;;
9467;SDS011;4772;52.382;9.752;2024-03-23T04:59:20;13.33;;;4.10;;
9467;SDS011;4772;52.382;9.752;2024-03-23T05:01:46;11.33;;;3.63;;
9467;SDS011;4772;52.382;9.752;2024-03-23T05:04:12;10.13;;;4.60;;
9467;SDS011;4772;52.382;9.752;2024-03-23T05:06:38;13.53;;;5.27;;
9467;SDS011;4772;52.382;9.752;2024-03-23T05:09:04;12.33;;;3.73;;
9467;SDS011;4772;52.382;9.752;2024-03-23T05:11:32;14.63;;;4.07;;
9467;SDS011;4772;52.382;9.752;2024-03-23T05:13:58;9.23;;;3.63;;
9467;SDS011;4772;52.382;9.752;2024-03-23T05:16:24;8.47;;;2.90;;
9467;SDS011;4772;52.382;9.752;2024-03-23T05:18:51;12.80;;;3.70;;
9467;SDS011;4772;52.382;9.752;2024-03-23T05:21:17;6.57;;;2.40;;
9467;SDS011;4772;52.382;9.752;2024-03-23T05:23:43;8.87;;;1.97;;
9467;SDS011;4772;52.382;9.752;2024-03-23T05:26:09;6.67;;;2.00;;
9467;SDS011;4772;52.382;9.752;2024-03-23T05:28:35;6.20;;;2.00;;
9467;SDS011;4772;52.382;9.752;2024-03-23T05:31:01;7.20;;;2.60;;
9467;SDS011;4772;52.382;9.752;2024-03-23T05:33:27;7.53;;;2.10;;
9467;SDS011;4772;52.382;9.752;2024-03-23T05:35:57;7.63;;;1.97;;
9467;SDS011;4772;52.382;9.752;2024-03-23T05:38:23;5.43;;;1.83;;
9467;SDS011;4772;52.382;9.752;2024-03-23T05:40:55;8.70;;;2.13;;
9467;SDS011;4772;52.382;9.752;2024-03-23T05:43:22;8.57;;;2.60;;
9467;SDS011;4772;52.382;9.752;2024-03-23T05:48:20;10.13;;;1.97;;
9467;SDS011;4772;52.382;9.752;2024-03-23T05:50:46;9.57;;;2.73;;
9467;SDS011;4772;52.382;9.752;2024-03-23T05:53:12;7.20;;;2.20;;
9467;SDS011;4772;52.382;9.752;2024-03-23T05:55:38;6.67;;;2.20;;
9467;SDS011;4772;52.382;9.752;2024-03-23T05:58:04;11.47;;;2.53;;
9467;SDS011;4772;52.382;9.752;2024-03-23T06:00:30;8.83;;;2.90;;
9467;SDS011;4772;52.382;9.752;2024-03-23T06:02:56;11.07;;;2.73;;
9467;SDS011;4772;52.382;9.752;2024-03-23T06:05:22;5.57;;;1.83;;
9467;SDS011;4772;52.382;9.752;2024-03-23T06:07:49;7.83;;;2.23;;
9467;SDS011;4772;52.382;9.752;2024-03-23T06:10:15;7.97;;;2.60;;
9467;SDS011;4772;52.382;9.752;2024-03-23T06:12:41;4.73;;;1.90;;
9467;SDS011;4772;52.382;9.752;2024-03-23T06:15:07;7.43;;;2.40;;
9467;SDS011;4772;52.382;9.752;2024-03-23T06:17:35;8.43;;;2.50;;
9467;SDS011;4772;52.382;9.752;2024-03-23T06:20:02;10.23;;;2.50;;
9467;SDS011;4772;52.382;9.752;2024-03-23T06:22:28;11.50;;;2.93;;
9467;SDS011;4772;52.382;9.752;2024-03-23T06:24:54;9.53;;;3.00;;
9467;SDS011;4772;52.382;9.752;2024-03-23T06:27:20;9.47;;;4.03;;
9467;SDS011;4772;52.382;9.752;2024-03-23T06:29:46;12.07;;;3.33;;
9467;SDS011;4772;52.382;9.752;2024-03-23T06:32:12;8.23;;;3.53;;
9467;SDS011;4772;52.382;9.752;2024-03-23T06:34:40;7.57;;;3.37;;
9467;SDS011;4772;52.382;9.752;2024-03-23T06:37:06;10.97;;;3.77;;
9467;SDS011;4772;52.382;9.752;2024-03-23T06:39:34;8.27;;;3.50;;
9467;SDS011;4772;52.382;9.752;2024-03-23T06:42:00;12.53;;;4.20;;
9467;SDS011;4772;52.382;9.752;2024-03-23T06:44:26;11.33;;;4.00;;
9467;SDS011;4772;52.382;9.752;2024-03-23T06:46:52;11.97;;;4.50;;
9467;SDS011;4772;52.382;9.752;2024-03-23T06:49:18;12.17;;;4.57;;
9467;SDS011;4772;52.382;9.752;2024-03-23T06:55:00;13.50;;;4.90;;
9467;SDS011;4772;52.382;9.752;2024-03-23T06:57:31;15.47;;;5.37;;
9467;SDS011;4772;52.382;9.752;2024-03-23T06:59:57;15.03;;;4.87;;
9467;SDS011;4772;52.382;9.752;2024-03-23T07:02:22;17.43;;;5.50;;
9467;SDS011;4772;52.382;9.752;2024-03-23T07:04:49;14.70;;;5.63;;
9467;SDS011;4772;52.382;9.752;2024-03-23T07:07:16;16.70;;;5.63;;
9467;SDS011;4772;52.382;9.752;2024-03-23T07:09:42;15.97;;;6.07;;
9467;SDS011;4772;52.382;9.752;2024-03-23T07:12:08;16.93;;;6.23;;
9467;SDS011;4772;52.382;9.752;2024-03-23T07:14:34;11.40;;;4.93;;
9467;SDS011;4772;52.382;9.752;2024-03-23T07:17:00;16.83;;;6.60;;
9467;SDS011;4772;52.382;9.752;2024-03-23T07:19:26;17.73;;;7.80;;
9467;SDS011;4772;52.382;9.752;2024-03-23T07:21:53;15.37;;;5.90;;
9467;SDS011;4772;52.382;9.752;2024-03-23T07:24:19;25.80;;;7.63;;
9467;SDS011;4772;52.382;9.752;2024-03-23T07:26:45;17.70;;;6.70;;
9467;SDS011;4772;52.382;9.752;2024-03-23T07:29:12;22.17;;;7.03;;
9467;SDS011;4772;52.382;9.752;2024-03-23T07:31:38;13.53;;;6.10;;
9467;SDS011;4772;52.382;9.752;2024-03-23T07:34:04;20.07;;;7.40;;
9467;SDS011;4772;52.382;9.752;2024-03-23T07:36:30;21.77;;;7.53;;
9467;SDS011;4772;52.382;9.752;2024-03-23T07:38:57;20.23;;;7.00;;
9467;SDS011;4772;52.382;9.752;2024-03-23T07:41:22;21.57;;;7.53;;
9467;SDS011;4772;52.382;9.752;2024-03-23T07:43:48;18.77;;;8.20;;
9467;SDS011;4772;52.382;9.752;2024-03-23T07:46:15;25.30;;;8.50;;
9467;SDS011;4772;52.382;9.752;2024-03-23T07:48:42;27.43;;;7.80;;
9467;SDS011;4772;52.382;9.752;2024-03-23T07:51:08;29.07;;;8.57;;
9467;SDS011;4772;52.382;9.752;2024-03-23T07:53:35;21.00;;;8.17;;
9467;SDS011;4772;52.382;9.752;2024-03-23T07:56:08;17.93;;;7.90;;
9467;SDS011;4772;52.382;9.752;2024-03-23T07:58:37;27.87;;;9.70;;
9467;SDS011;4772;52.382;9.752;2024-03-23T08:01:04;26.23;;;8.87;;
9467;SDS011;4772;52.382;9.752;2024-03-23T08:03:33;28.53;;;9.27;;
9467;SDS011;4772;52.382;9.752;2024-03-23T08:06:06;25.73;;;9.63;;
9467;SDS011;4772;52.382;9.752;2024-03-23T08:08:32;24.90;;;9.30;;
9467;SDS011;4772;52.382;9.752;2024-03-23T08:10:58;25.70;;;10.30;;
9467;SDS011;4772;52.382;9.752;2024-03-23T08:13:24;26.03;;;10.23;;
9467;SDS011;4772;52.382;9.752;2024-03-23T08:15:50;33.10;;;10.67;;
9467;SDS011;4772;52.382;9.752;2024-03-23T08:18:16;24.43;;;10.27;;
9467;SDS011;4772;52.382;9.752;2024-03-23T08:20:42;27.03;;;9.93;;
9467;SDS011;4772;52.382;9.752;2024-03-23T08:23:08;26.40;;;9.30;;
9467;SDS011;4772;52.382;9.752;2024-03-23T08:25:49;21.17;;;9.90;;
9467;SDS011;4772;52.382;9.752;2024-03-23T08:28:23;26.97;;;10.23;;
9467;SDS011;4772;52.382;9.752;2024-03-23T08:31:29;24.90;;;9.00;;
9467;SDS011;4772;52.382;9.752;2024-03-23T08:34:12;21.43;;;9.20;;
9467;SDS011;4772;52.382;9.752;2024-03-23T08:36:38;21.87;;;8.27;;
9467;SDS011;4772;52.382;9.752;2024-03-23T08:39:04;23.00;;;9.27;;
9467;SDS011;4772;52.382;9.752;2024-03-23T08:41:30;17.10;;;8.07;;
9467;SDS011;4772;52.382;9.752;2024-03-23T08:43:56;23.23;;;8.57;;
9467;SDS011;4772;52.382;9.752;2024-03-23T08:46:22;18.97;;;7.83;;
9467;SDS011;4772;52.382;9.752;2024-03-23T08:48:48;14.33;;;6.47;;
9467;SDS011;4772;52.382;9.752;2024-03-23T08:51:15;21.93;;;6.93;;
9467;SDS011;4772;52.382;9.752;2024-03-23T08:53:41;21.93;;;6.90;;
9467;SDS011;4772;52.382;9.752;2024-03-23T08:56:08;13.60;;;6.07;;
9467;SDS011;4772;52.382;9.752;2024-03-23T08:58:35;14.13;;;5.83;;
9467;SDS011;4772;52.382;9.752;2024-03-23T09:01:05;20.53;;;5.97;;
9467;SDS011;4772;52.382;9.752;2024-03-23T09:03:32;18.17;;;5.57;;
9467;SDS011;4772;52.382;9.752;2024-03-23T09:05:58;14.63;;;5.80;;
9467;SDS011;4772;52.382;9.752;2024-03-23T09:08:24;12.90;;;4.60;;
9467;SDS011;4772;52.382;9.752;2024-03-23T09:10:50;16.10;;;4.80;;
9467;SDS011;4772;52.382;9.752;2024-03-23T09:13:16;15.00;;;5.53;;
9467;SDS011;4772;52.382;9.752;2024-03-23T09:15:49;12.97;;;5.33;;
9467;SDS011;4772;52.382;9.752;2024-03-23T09:18:15;12.77;;;5.33;;
9467;SDS011;4772;52.382;9.752;2024-03-23T09:20:41;16.47;;;5.83;;
9467;SDS011;4772;52.382;9.752;2024-03-23T09:23:07;19.07;;;5.80;;
9467;SDS011;4772;52.382;9.752;2024-03-23T09:25:37;16.73;;;5.53;;
9467;SDS011;4772;52.382;9.752;2024-03-23T09:28:04;13.00;;;5.07;;
9467;SDS011;4772;52.382;9.752;2024-03-23T09:30:30;18.23;;;5.60;;
9467;SDS011;4772;52.382;9.752;2024-03-23T09:32:56;15.50;;;5.17;;
9467;SDS011;4772;52.382;9.752;2024-03-23T09:35:22;15.73;;;5.93;;
9467;SDS011;4772;52.382;9.752;2024-03-23T09:37:47;15.50;;;5.17;;
9467;SDS011;4772;52.382;9.752;2024-03-23T09:40:13;14.30;;;5.20;;
9467;SDS011;4772;52.382;9.752;2024-03-23T09:42:39;14.90;;;5.23;;
9467;SDS011;4772;52.382;9.752;2024-03-23T09:45:13;15.03;;;5.73;;
9467;SDS011;4772;52.382;9.752;2024-03-23T09:47:42;13.70;;;4.53;;
9467;SDS011;4772;52.382;9.752;2024-03-23T09:50:08;12.03;;;4.20;;
9467;SDS011;4772;52.382;9.752;2024-03-23T09:52:34;12.33;;;4.00;;
9467;SDS011;4772;52.382;9.752;2024-03-23T09:55:00;8.70;;;3.30;;
9467;SDS011;4772;52.382;9.752;2024-03-23T09:57:26;10.43;;;3.53;;
9467;SDS011;4772;52.382;9.752;2024-03-23T09:59:52;12.13;;;3.90;;
9467;SDS011;4772;52.382;9.752;2024-03-23T10:02:19;13.20;;;3.87;;
9467;SDS011;4772;52.382;9.752;2024-03-23T10:04:46;7.67;;;3.63;;
9467;SDS011;4772;52.382;9.752;2024-03-23T10:07:14;8.37;;;2.97;;
9467;SDS011;4772;52.382;9.752;2024-03-23T10:09:42;9.07;;;3.30;;
9467;SDS011;4772;52.382;9.752;2024-03-23T10:12:11;6.80;;;3.20;;
9467;SDS011;4772;52.382;9.752;2024-03-23T10:14:41;8.87;;;3.23;;
9467;SDS011;4772;52.382;9.752;2024-03-23T10:17:20;10.80;;;3.47;;
9467;SDS011;4772;52.382;9.752;2024-03-23T10:19:49;9.70;;;3.37;;
9467;SDS011;4772;52.382;9.752;2024-03-23T10:22:19;11.83;;;3.43;;
9467;SDS011;4772;52.382;9.752;2024-03-23T10:24:45;9.33;;;3.07;;
9467;SDS011;4772;52.382;9.752;2024-03-23T10:27:19;9.67;;;3.67;;
9467;SDS011;4772;52.382;9.752;2024-03-23T10:29:48;8.50;;;3.07;;
9467;SDS011;4772;52.382;9.752;2024-03-23T10:32:14;10.33;;;3.53;;
9467;SDS011;4772;52.382;9.752;2024-03-23T10:34:41;7.03;;;3.27;;
9467;SDS011;4772;52.382;9.752;2024-03-23T10:37:07;8.97;;;3.40;;
9467;SDS011;4772;52.382;9.752;2024-03-23T10:39:37;9.10;;;3.00;;
9467;SDS011;4772;52.382;9.752;2024-03-23T10:42:07;4.83;;;2.40;;
9467;SDS011;4772;52.382;9.752;2024-03-23T10:44:33;7.13;;;2.77;;
9467;SDS011;4772;52.382;9.752;2024-03-23T10:47:03;8.03;;;3.07;;
9467;SDS011;4772;52.382;9.752;2024-03-23T10:49:30;3.47;;;1.73;;
9467;SDS011;4772;52.382;9.752;2024-03-23T10:51:57;7.23;;;2.23;;
9467;SDS011;4772;52.382;9.752;2024-03-23T10:54:24;4.40;;;1.80;;
9467;SDS011;4772;52.382;9.752;2024-03-23T10:56:50;3.40;;;2.03;;
9467;SDS011;4772;52.382;9.752;2024-03-23T10:59:19;4.67;;;1.90;;
9467;SDS011;4772;52.382;9.752;2024-03-23T11:01:58;3.40;;;1.97;;
9467;SDS011;4772;52.382;9.752;2024-03-23T11:04:29;3.63;;;1.50;;
9467;SDS011;4772;52.382;9.752;2024-03-23T11:06:55;1.80;;;1.30;;
9467;SDS011;4772;52.382;9.752;2024-03-23T11:17:28;3.57;;;1.93;;
9467;SDS011;4772;52.382;9.752;2024-03-23T11:19:57;3.90;;;2.20;;
9467;SDS011;4772;52.382;9.752;2024-03-23T11:27:44;4.60;;;2.30;;
9467;SDS011;4772;52.382;9.752;2024-03-23T11:30:13;6.03;;;2.57;;
9467;SDS011;4772;52.382;9.752;2024-03-23T11:32:40;6.40;;;2.97;;
9467;SDS011;4772;52.382;9.752;2024-03-23T11:35:06;5.40;;;2.87;;
9467;SDS011;4772;52.382;9.752;2024-03-23T11:37:32;6.23;;;2.60;;
9467;SDS011;4772;52.382;9.752;2024-03-23T11:39:58;4.50;;;2.27;;
9467;SDS011;4772;52.382;9.752;2024-03-23T11:42:25;5.30;;;2.30;;
9467;SDS011;4772;52.382;9.752;2024-03-23T11:44:52;4.77;;;2.57;;
9467;SDS011;4772;52.382;9.752;2024-03-23T11:47:27;4.93;;;2.50;;
9467;SDS011;4772;52.382;9.752;2024-03-23T11:49:53;5.63;;;3.40;;
9467;SDS011;4772;52.382;9.752;2024-03-23T11:52:41;3.90;;;2.40;;
9467;SDS011;4772;52.382;9.752;2024-03-23T11:55:30;4.60;;;2.33;;
9467;SDS011;4772;52.382;9.752;2024-03-23T11:58:04;4.17;;;2.17;;
9467;SDS011;4772;52.382;9.752;2024-03-23T12:00:30;5.27;;;2.03;;
9467;SDS011;4772;52.382;9.752;2024-03-23T12:03:00;4.97;;;2.00;;
9467;SDS011;4772;52.382;9.752;2024-03-23T12:05:26;3.13;;;1.90;;
9467;SDS011;4772;52.382;9.752;2024-03-23T12:07:52;2.17;;;1.57;;
9467;SDS011;4772;52.382;9.752;2024-03-23T12:10:19;3.23;;;1.50;;
9467;SDS011;4772;52.382;9.752;2024-03-23T12:12:45;3.17;;;1.40;;
9467;SDS011;4772;52.382;9.752;2024-03-23T12:15:11;4.47;;;1.90;;
9467;SDS011;4772;52.382;9.752;2024-03-23T12:17:38;3.00;;;1.67;;
9467;SDS011;4772;52.382;9.752;2024-03-23T12:20:04;2.53;;;1.60;;
9467;SDS011;4772;52.382;9.752;2024-03-23T12:22:30;3.00;;;1.67;;
9467;SDS011;4772;52.382;9.752;2024-03-23T12:24:56;5.17;;;2.03;;
9467;SDS011;4772;52.382;9.752;2024-03-23T12:27:22;3.00;;;1.80;;
9467;SDS011;4772;52.382;9.752;2024-03-23T12:29:48;4.13;;;2.47;;
9467;SDS011;4772;52.382;9.752;2024-03-23T12:32:15;3.60;;;2.33;;
9467;SDS011;4772;52.382;9.752;2024-03-23T12:34:41;4.50;;;1.80;;
9467;SDS011;4772;52.382;9.752;2024-03-23T12:37:07;3.47;;;1.97;;
9467;SDS011;4772;52.382;9.752;2024-03-23T12:39:37;3.27;;;1.70;;
9467;SDS011;4772;52.382;9.752;2024-03-23T12:42:03;3.47;;;1.93;;
9467;SDS011;4772;52.382;9.752;2024-03-23T12:44:29;5.60;;;2.10;;
9467;SDS011;4772;52.382;9.752;2024-03-23T12:46:56;5.10;;;2.10;;
9467;SDS011;4772;52.382;9.752;2024-03-23T12:58:19;2.53;;;1.20;;
9467;SDS011;4772;52.382;9.752;2024-03-23T13:07:30;3.30;;;1.63;;
9467;SDS011;4772;52.382;9.752;2024-03-23T13:47:04;2.83;;;1.90;;
9467;SDS011;4772;52.382;9.752;2024-03-23T16:15:09;4.27;;;1.90;;
9467;SDS011;4772;52.382;9.752;2024-03-23T16:18:13;5.20;;;1.90;;
9467;SDS011;4772;52.382;9.752;2024-03-23T16:20:39;3.10;;;1.77;;
9467;SDS011;4772;52.382;9.752;2024-03-23T16:23:05;4.10;;;2.10;;
9467;SDS011;4772;52.382;9.752;2024-03-23T16:25:31;3.47;;;2.20;;
9467;SDS011;4772;52.382;9.752;2024-03-23T16:27:57;5.83;;;3.03;;
9467;SDS011;4772;52.382;9.752;2024-03-23T16:30:23;4.20;;;2.30;;
9467;SDS011;4772;52.382;9.752;2024-03-23T16:32:49;4.63;;;3.50;;
9467;SDS011;4772;52.382;9.752;2024-03-23T16:35:16;4.47;;;2.70;;
9467;SDS011;4772;52.382;9.752;2024-03-23T16:37:42;4.80;;;2.70;;
9467;SDS011;4772;52.382;9.752;2024-03-23T16:40:09;2.57;;;1.90;;
9467;SDS011;4772;52.382;9.752;2024-03-23T16:42:36;6.27;;;4.33;;
9467;SDS011;4772;52.382;9.752;2024-03-23T16:45:02;2.93;;;2.20;;
9467;SDS011;4772;52.382;9.752;2024-03-23T16:47:28;3.37;;;2.03;;
9467;SDS011;4772;52.382;9.752;2024-03-23T16:49:54;3.30;;;1.93;;
9467;SDS011;4772;52.382;9.752;2024-03-23T16:52:21;4.30;;;1.83;;
9467;SDS011;4772;52.382;9.752;2024-03-23T16:54:48;5.83;;;2.37;;
9467;SDS011;4772;52.382;9.752;2024-03-23T16:57:14;4.27;;;1.93;;
9467;SDS011;4772;52.382;9.752;2024-03-23T16:59:40;3.67;;;2.40;;
9467;SDS011;4772;52.382;9.752;2024-03-23T17:02:08;4.30;;;2.10;;
9467;SDS011;4772;52.382;9.752;2024-03-23T17:04:34;4.57;;;2.37;;
9467;SDS011;4772;52.382;9.752;2024-03-23T17:07:00;5.40;;;2.30;;
9467;SDS011;4772;52.382;9.752;2024-03-23T17:09:26;4.63;;;2.30;;
9467;SDS011;4772;52.382;9.752;2024-03-23T17:11:52;6.30;;;2.27;;
9467;SDS011;4772;52.382;9.752;2024-03-23T17:14:18;4.77;;;2.10;;
9467;SDS011;4772;52.382;9.752;2024-03-23T17:16:57;4.17;;;2.00;;
9467;SDS011;4772;52.382;9.752;2024-03-23T17:19:28;4.67;;;2.37;;
9467;SDS011;4772;52.382;9.752;2024-03-23T17:22:17;7.27;;;2.70;;
9467;SDS011;4772;52.382;9.752;2024-03-23T17:24:55;5.03;;;2.60;;
9467;SDS011;4772;52.382;9.752;2024-03-23T17:27:36;4.70;;;2.13;;
9467;SDS011;4772;52.382;9.752;2024-03-23T17:30:02;5.60;;;2.40;;
9467;SDS011;4772;52.382;9.752;2024-03-23T17:32:29;3.03;;;2.13;;
9467;SDS011;4772;52.382;9.752;2024-03-23T17:34:56;6.70;;;2.50;;
9467;SDS011;4772;52.382;9.752;2024-03-23T17:37:22;3.60;;;2.40;;
9467;SDS011;4772;52.382;9.752;2024-03-23T17:39:48;4.10;;;2.47;;
9467;SDS011;4772;52.382;9.752;2024-03-23T17:42:14;4.13;;;2.17;;
9467;SDS011;4772;52.382;9.752;2024-03-23T17:44:41;4.60;;;2.67;;
9467;SDS011;4772;52.382;9.752;2024-03-23T17:47:07;5.20;;;2.50;;
9467;SDS011;4772;52.382;9.752;2024-03-23T17:49:33;5.37;;;2.33;;
9467;SDS011;4772;52.382;9.752;2024-03-23T17:52:00;3.93;;;2.47;;
9467;SDS011;4772;52.382;9.752;2024-03-23T17:54:26;5.60;;;3.20;;
9467;SDS011;4772;52.382;9.752;2024-03-23T17:56:52;6.63;;;3.23;;
9467;SDS011;4772;52.382;9.752;2024-03-23T17:59:21;5.13;;;2.90;;
9467;SDS011;4772;52.382;9.752;2024-03-23T18:01:47;4.03;;;3.27;;
9467;SDS011;4772;52.382;9.752;2024-03-23T18:04:13;6.17;;;3.00;;
9467;SDS011;4772;52.382;9.752;2024-03-23T18:06:39;8.17;;;3.43;;
9467;SDS011;4772;52.382;9.752;2024-03-23T18:09:05;6.70;;;3.13;;
9467;SDS011;4772;52.382;9.752;2024-03-23T18:11:34;6.20;;;3.13;;
9467;SDS011;4772;52.382;9.752;2024-03-23T18:14:00;4.83;;;2.63;;
9467;SDS011;4772;52.382;9.752;2024-03-23T18:16:26;7.17;;;3.47;;
9467;SDS011;4772;52.382;9.752;2024-03-23T18:18:52;5.80;;;4.07;;
9467;SDS011;4772;52.382;9.752;2024-03-23T18:21:18;5.70;;;3.80;;
9467;SDS011;4772;52.382;9.752;2024-03-23T18:23:46;6.13;;;3.57;;
9467;SDS011;4772;52.382;9.752;2024-03-23T18:26:11;8.93;;;4.23;;
9467;SDS011;4772;52.382;9.752;2024-03-23T18:28:38;8.30;;;4.03;;
9467;SDS011;4772;52.382;9.752;2024-03-23T18:31:04;7.63;;;3.73;;
9467;SDS011;4772;52.382;9.752;2024-03-23T18:33:36;9.60;;;4.03;;
9467;SDS011;4772;52.382;9.752;2024-03-23T18:36:03;6.90;;;3.70;;
9467;SDS011;4772;52.382;9.752;2024-03-23T18:38:29;7.43;;;4.40;;
9467;SDS011;4772;52.382;9.752;2024-03-23T18:40:55;6.47;;;3.70;;
9467;SDS011;4772;52.382;9.752;2024-03-23T18:43:22;10.40;;;4.53;;
9467;SDS011;4772;52.382;9.752;2024-03-23T18:45:48;9.77;;;4.67;;
9467;SDS011;4772;52.382;9.752;2024-03-23T18:48:15;12.67;;;4.40;;
9467;SDS011;4772;52.382;9.752;2024-03-23T18:50:41;9.20;;;4.17;;
9467;SDS011;4772;52.382;9.752;2024-03-23T18:53:07;9.67;;;4.47;;
9467;SDS011;4772;52.382;9.752;2024-03-23T18:55:35;6.77;;;4.27;;
9467;SDS011;4772;52.382;9.752;2024-03-23T18:58:01;11.03;;;4.80;;
9467;SDS011;4772;52.382;9.752;2024-03-23T19:00:28;6.23;;;3.50;;
9467;SDS011;4772;52.382;9.752;2024-03-23T19:02:54;3.93;;;2.10;;
9467;SDS011;4772;52.382;9.752;2024-03-23T19:05:21;4.00;;;2.33;;
9467;SDS011;4772;52.382;9.752;2024-03-23T19:07:47;4.03;;;2.07;;
9467;SDS011;4772;52.382;9.752;2024-03-23T19:10:13;4.80;;;1.90;;
9467;SDS011;4772;52.382;9.752;2024-03-23T19:12:39;4.60;;;2.20;;
9467;SDS011;4772;52.382;9.752;2024-03-23T19:15:06;4.07;;;1.90;;
9467;SDS011;4772;52.382;9.752;2024-03-23T19:17:33;3.30;;;2.10;;
9467;SDS011;4772;52.382;9.752;2024-03-23T19:19:59;2.57;;;1.83;;
9467;SDS011;4772;52.382;9.752;2024-03-23T19:22:26;4.50;;;2.10;;
9467;SDS011;4772;52.382;9.752;2024-03-23T19:24:54;3.40;;;2.20;;
9467;SDS011;4772;52.382;9.752;2024-03-23T19:27:20;2.43;;;1.67;;
9467;SDS011;4772;52.382;9.752;2024-03-23T19:29:47;3.73;;;2.27;;
9467;SDS011;4772;52.382;9.752;2024-03-23T19:32:13;2.57;;;1.80;;
9467;SDS011;4772;52.382;9.752;2024-03-23T19:34:39;6.10;;;2.00;;
9467;SDS011;4772;52.382;9.752;2024-03-23T19:37:05;3.30;;;2.00;;